Time;durP1;ratioP1;P1;durP2;ratioP2;P2;SDS_P1;SDS_P2;PMS_P1;PMS_P2;Temp;Humidity;BMP_temperature;BMP_pressure;BME280_temperature;BME280_humidity;BME280_pressure;Samples;Min_cycle;Max_cycle;Signal;HPM_P1;HPM_P2
2023/12/04 00:01:22;;;;;;;37.95;21.85;;;;;;;-2.19;94.15;100602.69;1725631;82;25633;-55
2023/12/04 00:03:49;;;;;;;41.42;22.75;;;;;;;-2.17;93.92;100601.95;1723881;83;26255;-55
2023/12/04 00:06:16;;;;;;;41.50;22.00;;;;;;;-2.16;93.93;100601.73;1724236;83;27675;-57
2023/12/04 00:08:42;;;;;;;41.45;22.32;;;;;;;-2.15;93.89;100602.02;1725016;83;25697;-54
2023/12/04 00:11:09;;;;;;;38.63;21.62;;;;;;;-2.16;93.83;100609.69;1725190;83;25888;-53
2023/12/04 00:13:36;;;;;;;42.95;22.62;;;;;;;-2.16;93.81;100604.88;1725105;83;25690;-57
2023/12/04 00:16:04;;;;;;;38.65;21.77;;;;;;;-2.17;93.85;100613.35;1725200;83;26307;-55
2023/12/04 00:18:30;;;;;;;41.75;22.22;;;;;;;-2.17;93.89;100609.38;1692596;83;27327;-55
2023/12/04 00:20:58;;;;;;;43.20;21.90;;;;;;;-2.18;93.90;100608.27;1720226;83;25674;-57
2023/12/04 00:23:24;;;;;;;39.98;22.52;;;;;;;-2.16;93.94;100618.12;1714394;83;25561;-57
2023/12/04 00:25:51;;;;;;;38.35;22.58;;;;;;;-2.17;94.02;100613.35;1714129;83;25969;-57
2023/12/04 00:28:17;;;;;;;38.05;22.13;;;;;;;-2.17;94.08;100618.66;1714125;83;25541;-57
2023/12/04 00:30:44;;;;;;;43.10;23.38;;;;;;;-2.17;94.17;100612.55;1714127;83;27348;-56
2023/12/04 00:33:11;;;;;;;39.13;22.13;;;;;;;-2.18;94.27;100620.19;1714048;83;25480;-57
2023/12/04 00:35:37;;;;;;;47.25;25.50;;;;;;;-2.18;94.26;100625.00;1714205;83;25490;-56
2023/12/04 00:38:04;;;;;;;50.38;27.02;;;;;;;-2.16;94.39;100626.08;1714117;83;25590;-57
2023/12/04 00:40:30;;;;;;;43.55;25.88;;;;;;;-2.15;94.53;100621.09;1713987;83;25388;-58
2023/12/04 00:42:58;;;;;;;44.40;24.43;;;;;;;-2.17;94.58;100622.63;1714095;83;27433;-54
2023/12/04 00:45:25;;;;;;;45.10;24.72;;;;;;;-2.15;94.53;100625.06;1685691;83;26037;-56
2023/12/04 00:47:51;;;;;;;44.45;24.92;;;;;;;-2.15;94.59;100633.81;1714211;83;25619;-56
2023/12/04 00:54:14;;;;;;;45.98;25.37;;;;;;;-2.14;94.68;100632.80;1713888;83;25553;-58
2023/12/04 00:56:40;;;;;;;46.68;24.85;;;;;;;-2.12;94.91;100633.39;1714088;83;29459;-57
2023/12/04 00:59:09;;;;;;;43.80;23.80;;;;;;;-2.13;94.93;100636.26;1713981;83;27245;-57
2023/12/04 01:01:38;;;;;;;47.17;25.70;;;;;;;-2.13;94.89;100642.88;1714393;83;25630;-56
2023/12/04 01:04:05;;;;;;;;;;;;;;;-2.14;95.01;100639.43;1716627;83;25693;-57
2023/12/04 01:06:31;;;;;;;45.80;24.12;;;;;;;-2.13;95.18;100638.41;1714114;83;25551;-55
2023/12/04 01:08:57;;;;;;;46.60;24.20;;;;;;;-2.15;95.19;100629.04;1714339;83;27327;-57
2023/12/04 01:11:24;;;;;;;45.95;24.70;;;;;;;-2.12;95.24;100634.72;1714047;83;25379;-55
2023/12/04 01:13:51;;;;;;;49.15;25.12;;;;;;;-2.10;95.30;100639.28;1714179;83;25390;-57
2023/12/04 01:16:17;;;;;;;46.08;25.17;;;;;;;-2.08;95.32;100633.27;1714059;83;25936;-56
2023/12/04 01:18:44;;;;;;;47.00;25.15;;;;;;;-2.04;95.41;100646.91;1686047;83;25597;-56
2023/12/04 01:21:10;;;;;;;47.85;24.67;;;;;;;-2.01;95.45;100645.16;1718972;83;27250;-58
2023/12/04 01:23:37;;;;;;;45.12;25.72;;;;;;;-2.00;95.49;100638.80;1726225;83;25530;-54
2023/12/04 01:26:05;;;;;;;47.60;25.92;;;;;;;-1.98;95.45;100640.72;1725244;83;25683;-56
2023/12/04 01:28:31;;;;;;;47.08;25.20;;;;;;;-1.95;95.39;100644.79;1697974;83;25610;-57
2023/12/04 01:30:58;;;;;;;48.58;26.15;;;;;;;-1.94;95.34;100649.05;1726255;82;25398;-55
2023/12/04 01:33:24;;;;;;;51.70;27.75;;;;;;;-1.94;95.39;100650.37;1726416;83;27208;-57
2023/12/04 01:35:51;;;;;;;44.55;24.92;;;;;;;-1.94;95.46;100647.72;1725781;83;25382;-55
2023/12/04 01:38:17;;;;;;;47.93;25.72;;;;;;;-1.94;95.54;100644.58;1726513;83;25567;-56
2023/12/04 01:40:44;;;;;;;50.95;26.25;;;;;;;-1.93;95.61;100642.20;1698506;83;25460;-57
2023/12/04 01:43:10;;;;;;;51.20;26.17;;;;;;;-1.92;95.57;100649.66;1726467;83;25557;-58
2023/12/04 01:45:37;;;;;;;49.63;25.25;;;;;;;-1.92;95.67;100656.30;1726390;82;27291;-58
2023/12/04 01:48:07;;;;;;;53.50;25.77;;;;;;;-1.91;95.70;100656.57;1726291;83;25543;-57
2023/12/04 01:50:35;;;;;;;49.23;26.20;;;;;;;-1.91;95.75;100658.73;1726382;83;25642;-58
2023/12/04 01:53:03;;;;;;;46.30;25.15;;;;;;;-1.89;95.78;100655.34;1726287;83;25619;-57
2023/12/04 01:55:30;;;;;;;49.00;25.57;;;;;;;-1.87;95.82;100655.13;1726401;83;25590;-57
2023/12/04 01:57:59;;;;;;;49.98;25.68;;;;;;;-1.85;95.77;100661.55;1726313;83;27935;-58
2023/12/04 02:00:26;;;;;;;46.58;24.15;;;;;;;-1.85;95.78;100653.59;1726029;83;25577;-58
2023/12/04 02:02:53;;;;;;;47.48;25.27;;;;;;;-1.84;95.75;100657.84;1726321;83;25401;-58
2023/12/04 02:05:22;;;;;;;44.70;25.10;;;;;;;-1.83;95.73;100658.16;1726357;83;25563;-56
2023/12/04 02:07:49;;;;;;;45.23;25.35;;;;;;;-1.82;95.62;100653.96;1726465;83;25394;-57
2023/12/04 02:10:15;;;;;;;44.63;23.55;;;;;;;-1.82;95.62;100659.27;1726341;83;27906;-57
2023/12/04 02:12:42;;;;;;;43.70;23.47;;;;;;;-1.81;95.62;100668.83;1726104;83;25539;-58
2023/12/04 02:15:10;;;;;;;41.63;23.25;;;;;;;-1.79;95.56;100680.02;1726368;83;25535;-58
2023/12/04 02:17:38;;;;;;;41.68;23.83;;;;;;;-1.79;95.55;100686.65;1726157;83;25724;-58
2023/12/04 02:20:07;;;;;;;39.45;22.22;;;;;;;-1.78;95.59;100684.83;1726062;83;25589;-59
2023/12/04 02:22:34;;;;;;;41.10;23.12;;;;;;;-1.76;95.64;100682.77;1726224;83;28114;-57
2023/12/04 02:25:01;;;;;;;37.83;21.65;;;;;;;-1.77;95.44;100687.77;1726474;83;25402;-56
2023/12/04 02:27:43;;;;;;;38.17;21.50;;;;;;;-1.78;95.38;100679.53;1726366;83;25504;-56
2023/12/04 02:30:12;;;;;;;36.85;20.40;;;;;;;-1.77;95.33;100686.44;1724898;83;26363;-57
2023/12/04 02:32:44;;;;;;;33.70;19.48;;;;;;;-1.78;95.28;100688.28;1726048;83;25593;-57
2023/12/04 02:35:17;;;;;;;33.73;19.05;;;;;;;-1.81;94.97;100690.56;1726039;83;27686;-56
2023/12/04 02:37:44;;;;;;;27.55;18.15;;;;;;;-1.83;94.79;100694.75;1725759;83;25377;-57
2023/12/04 02:40:13;;;;;;;27.13;16.32;;;;;;;-1.85;94.66;100683.56;1726408;83;25442;-57
2023/12/04 02:42:40;;;;;;;23.67;14.70;;;;;;;-1.86;94.52;100683.77;1726498;83;25620;-53
2023/12/04 02:45:08;;;;;;;23.20;15.03;;;;;;;-1.87;94.31;100686.95;1726159;83;25588;-56
2023/12/04 02:47:35;;;;;;;24.45;14.73;;;;;;;-1.89;94.16;100688.48;1726298;83;27328;-57
2023/12/04 02:50:01;;;;;;;19.57;14.87;;;;;;;-1.91;94.09;100691.05;1726274;83;25382;-55
2023/12/04 02:52:28;;;;;;;23.22;14.65;;;;;;;-1.91;94.12;100691.05;1726398;83;25425;-57
2023/12/04 02:54:56;;;;;;;25.80;15.30;;;;;;;-1.91;94.18;100695.02;1726391;83;26487;-58
2023/12/04 02:57:22;;;;;;;22.25;14.20;;;;;;;-1.92;94.12;100700.84;1726308;83;25420;-53
2023/12/04 02:59:49;;;;;;;28.32;16.70;;;;;;;-1.93;94.13;100700.53;1726253;83;27851;-55
2023/12/04 03:02:16;;;;;;;30.32;17.73;;;;;;;-1.95;93.92;100699.14;1726005;83;25801;-57
2023/12/04 03:04:43;;;;;;;28.70;16.80;;;;;;;-1.98;93.90;100707.52;1726394;83;25380;-53
2023/12/04 03:07:09;;;;;;;32.78;16.48;;;;;;;-2.01;93.82;100710.59;1726402;83;25631;-54
2023/12/04 03:09:36;;;;;;;30.57;17.65;;;;;;;-2.06;93.70;100709.91;1726329;83;25621;-57
2023/12/04 03:12:03;;;;;;;32.73;17.75;;;;;;;-2.08;93.68;100705.34;1726454;83;27721;-58
2023/12/04 03:14:30;;;;;;;33.35;17.77;;;;;;;-2.11;93.74;100709.73;1726297;83;25602;-56
2023/12/04 03:16:56;;;;;;;31.00;17.75;;;;;;;-2.16;93.52;100708.25;1726334;83;25559;-54
2023/12/04 03:19:23;;;;;;;31.42;17.23;;;;;;;-2.21;93.55;100708.08;1725691;83;25635;-58
2023/12/04 03:21:50;;;;;;;31.40;17.20;;;;;;;-2.21;93.71;100716.86;1720882;82;25603;-58
2023/12/04 03:24:17;;;;;;;30.75;17.60;;;;;;;-2.21;93.74;100714.70;1714194;83;27903;-57
2023/12/04 03:26:43;;;;;;;28.98;16.57;;;;;;;-2.23;93.73;100715.44;1714267;83;25602;-57
2023/12/04 03:29:10;;;;;;;29.00;16.55;;;;;;;-2.27;93.45;100715.05;1686046;83;25564;-57
2023/12/04 03:31:38;;;;;;;32.17;16.80;;;;;;;-2.31;93.35;100726.59;1714370;83;25684;-57
2023/12/04 03:34:05;;;;;;;28.77;15.90;;;;;;;-2.33;93.40;100722.55;1714506;83;25420;-57
2023/12/04 03:36:31;;;;;;;32.13;16.45;;;;;;;-2.38;93.34;100729.80;1713963;83;27217;-56
2023/12/04 03:38:57;;;;;;;27.75;15.70;;;;;;;-2.42;93.35;100725.93;1689384;83;25410;-52
2023/12/04 03:41:24;;;;;;;28.07;15.48;;;;;;;-2.46;93.26;100725.55;1686656;83;25589;-54
2023/12/04 03:43:51;;;;;;;27.70;14.87;;;;;;;-2.48;93.45;100734.22;1714115;83;25603;-56
2023/12/04 03:46:18;;;;;;;23.98;14.25;;;;;;;-2.51;93.44;100731.99;1714102;83;25469;-55
2023/12/04 03:48:45;;;;;;;26.10;14.68;;;;;;;-2.54;93.56;100731.08;1714250;83;27356;-56
2023/12/04 03:51:12;;;;;;;25.50;14.45;;;;;;;-2.56;93.61;100732.33;1714083;83;25458;-56
2023/12/04 03:53:38;;;;;;;25.02;13.68;;;;;;;-2.55;93.76;100739.27;1714366;83;25551;-56
2023/12/04 03:56:07;;;;;;;31.80;15.58;;;;;;;-2.56;93.88;100738.44;1714118;83;25982;-54
2023/12/04 03:58:33;;;;;;;27.07;15.32;;;;;;;-2.57;93.76;100738.64;1714215;83;25429;-58
2023/12/04 04:01:00;;;;;;;29.60;16.02;;;;;;;-2.63;93.65;100740.31;1714143;83;27908;-55
2023/12/04 04:03:27;;;;;;;30.00;16.25;;;;;;;-2.64;93.73;100735.53;1714216;83;25471;-57
2023/12/04 04:05:54;;;;;;;25.95;15.53;;;;;;;-2.65;93.82;100752.44;1685861;83;25410;-57
2023/12/04 04:08:20;;;;;;;28.73;16.32;;;;;;;-2.64;93.90;100745.29;1714110;83;25647;-55
2023/12/04 04:10:47;;;;;;;30.02;16.97;;;;;;;-2.66;93.87;100744.17;1714276;83;25623;-57
2023/12/04 04:13:14;;;;;;;29.10;15.88;;;;;;;-2.66;93.90;100738.08;1714153;83;27408;-56
2023/12/04 04:15:41;;;;;;;28.62;16.75;;;;;;;-2.70;93.67;100745.63;1714159;83;25559;-55
2023/12/04 04:18:08;;;;;;;28.90;16.15;;;;;;;-2.72;93.66;100746.88;1714140;83;25391;-56
2023/12/04 04:20:34;;;;;;;29.60;16.80;;;;;;;-2.73;93.78;100750.53;1714222;83;26387;-55
2023/12/04 04:23:01;;;;;;;30.72;17.00;;;;;;;-2.77;93.72;100756.77;1714274;83;25410;-57
2023/12/04 04:25:28;;;;;;;28.50;16.17;;;;;;;-2.77;93.87;100754.64;1714196;83;27913;-57
2023/12/04 04:27:55;;;;;;;29.07;16.55;;;;;;;-2.79;93.88;100757.48;1714174;83;25675;-58
2023/12/04 04:30:21;;;;;;;32.90;16.80;;;;;;;-2.79;93.87;100763.27;1713993;83;25475;-57
2023/12/04 04:32:48;;;;;;;30.70;17.80;;;;;;;-2.84;93.79;100751.48;1714311;83;25625;-54
2023/12/04 04:35:15;;;;;;;33.98;17.25;;;;;;;-2.80;93.85;100766.45;1714027;83;25649;-57
2023/12/04 04:37:41;;;;;;;30.92;16.85;;;;;;;-2.80;93.91;100754.53;1714133;83;27218;-56
2023/12/04 04:40:09;;;;;;;34.05;18.70;;;;;;;-2.81;93.91;100755.54;1713889;83;25632;-56
2023/12/04 04:42:36;;;;;;;31.45;19.45;;;;;;;-2.82;93.86;100755.25;1714222;83;25633;-57
2023/12/04 04:45:04;;;;;;;33.58;18.23;;;;;;;-2.84;93.62;100757.30;1714049;83;25621;-55
2023/12/04 04:47:31;;;;;;;30.75;17.30;;;;;;;-2.84;93.65;100763.92;1686226;83;25305;-57
2023/12/04 04:49:58;;;;;;;33.75;18.10;;;;;;;-2.84;93.74;100759.95;1714137;83;27339;-56
2023/12/04 04:52:25;;;;;;;33.25;18.45;;;;;;;-2.86;93.73;100765.45;1714043;83;25539;-57
2023/12/04 04:54:51;;;;;;;35.90;18.25;;;;;;;-2.86;93.67;100762.80;1714166;83;25555;-58
2023/12/04 04:57:18;;;;;;;32.48;17.73;;;;;;;-2.87;93.64;100766.46;1714081;83;26072;-58
2023/12/04 04:59:45;;;;;;;33.23;18.92;;;;;;;-2.85;93.72;100772.87;1714040;83;25547;-55
2023/12/04 05:02:11;;;;;;;35.98;19.25;;;;;;;-2.86;93.67;100765.94;1714410;83;27465;-57
2023/12/04 05:04:38;;;;;;;35.80;19.35;;;;;;;-2.88;93.55;100764.02;1714057;83;25646;-58
2023/12/04 05:07:04;;;;;;;33.50;18.17;;;;;;;-2.89;93.35;100771.67;1714193;83;25548;-57
2023/12/04 05:09:31;;;;;;;36.42;19.73;;;;;;;-2.95;93.30;100761.91;1713984;83;26371;-53
2023/12/04 05:11:58;;;;;;;34.15;18.35;;;;;;;-2.94;93.19;100760.38;1714209;83;25597;-53
2023/12/04 05:14:24;;;;;;;37.48;19.07;;;;;;;-2.96;93.15;100763.75;1714092;83;27676;-53
2023/12/04 05:16:51;;;;;;;32.17;17.73;;;;;;;-2.98;93.25;100764.97;1714075;83;26147;-54
2023/12/04 05:19:18;;;;;;;34.08;19.60;;;;;;;-2.97;93.38;100769.25;1714245;83;25456;-55
2023/12/04 05:21:44;;;;;;;36.33;19.70;;;;;;;-2.96;93.44;100769.53;1714210;83;26266;-56
2023/12/04 05:24:11;;;;;;;38.53;19.45;;;;;;;-2.96;93.38;100781.45;1715909;83;25474;-53
2023/12/04 05:26:38;;;;;;;41.23;19.70;;;;;;;-2.96;93.35;100780.95;1715949;83;28055;-53
2023/12/04 05:29:04;;;;;;;34.75;19.60;;;;;;;-2.96;93.28;100788.06;1715742;83;25995;-53
2023/12/04 05:31:31;;;;;;;35.65;18.57;;;;;;;-2.97;93.27;100787.78;1715853;83;25551;-52
2023/12/04 05:33:58;;;;;;;37.05;18.70;;;;;;;-2.97;93.37;100792.55;1715892;83;26118;-53
2023/12/04 05:36:27;;;;;;;33.63;18.95;;;;;;;-2.98;93.32;100794.08;1715912;83;25596;-52
2023/12/04 05:38:53;;;;;;;31.45;18.95;;;;;;;-3.01;93.27;100789.52;1716082;83;27696;-52
2023/12/04 05:41:20;;;;;;;33.98;18.82;;;;;;;-3.01;93.42;100791.36;1715861;83;25797;-55
2023/12/04 05:43:47;;;;;;;34.25;18.67;;;;;;;-3.01;93.40;100786.86;1715872;83;25614;-54
2023/12/04 05:46:14;;;;;;;37.30;20.02;;;;;;;-2.99;93.50;100789.83;1715811;83;26027;-58
2023/12/04 05:48:40;;;;;;;35.28;19.77;;;;;;;-2.99;93.58;100791.15;1715852;83;25543;-53
2023/12/04 05:51:07;;;;;;;35.92;19.05;;;;;;;-2.97;93.55;100787.78;1692103;83;27041;-53
2023/12/04 05:53:34;;;;;;;36.80;20.52;;;;;;;-2.99;93.44;100795.92;1715731;83;25635;-54
2023/12/04 05:56:01;;;;;;;37.03;20.32;;;;;;;-3.00;93.40;100791.64;1715842;83;25621;-53
2023/12/04 05:58:28;;;;;;;35.85;18.65;;;;;;;-2.98;93.44;100792.23;1715789;83;26299;-56
2023/12/04 06:00:55;;;;;;;36.13;20.08;;;;;;;-2.97;93.38;100799.69;1715856;83;25422;-56
2023/12/04 06:03:22;;;;;;;33.45;18.57;;;;;;;-2.95;93.39;100795.00;1715817;83;28344;-55
2023/12/04 06:05:48;;;;;;;36.08;19.62;;;;;;;-2.96;93.18;100796.84;1715761;83;25470;-53
2023/12/04 06:08:15;;;;;;;37.15;20.08;;;;;;;-2.97;93.15;100796.52;1715853;83;25544;-54
2023/12/04 06:10:42;;;;;;;38.60;20.27;;;;;;;-2.98;93.15;100796.20;1715773;83;26655;-54
2023/12/04 06:13:09;;;;;;;30.40;17.82;;;;;;;-2.98;93.24;100804.15;1715849;83;25610;-52
2023/12/04 06:15:35;;;;;;;36.90;19.45;;;;;;;-2.96;93.21;100813.21;1715875;83;27987;-56
2023/12/04 06:18:02;;;;;;;38.53;20.23;;;;;;;-2.99;93.21;100801.22;1715728;83;25600;-54
2023/12/04 06:20:29;;;;;;;34.38;18.95;;;;;;;-2.96;93.28;100807.91;1691810;83;25434;-54
2023/12/04 06:22:56;;;;;;;33.90;19.65;;;;;;;-2.94;93.26;100805.90;1714950;83;26603;-56
2023/12/04 06:25:25;;;;;;;38.10;20.55;;;;;;;-2.93;93.28;100807.51;1714069;83;25623;-53
2023/12/04 06:27:53;;;;;;;35.78;19.90;;;;;;;-2.93;93.18;100805.67;1714127;83;28017;-55
2023/12/04 06:30:21;;;;;;;33.40;19.57;;;;;;;-2.93;93.17;100812.80;1686195;83;25713;-55
2023/12/04 06:32:48;;;;;;;37.60;20.62;;;;;;;-2.92;93.13;100818.41;1714056;83;25458;-55
2023/12/04 06:35:17;;;;;;;36.83;19.75;;;;;;;-2.91;93.11;100820.86;1713853;83;25663;-56
2023/12/04 06:37:45;;;;;;;37.50;20.00;;;;;;;-2.90;93.20;100820.34;1714084;83;25570;-51
2023/12/04 06:40:13;;;;;;;35.68;19.30;;;;;;;-2.89;93.14;100817.48;1714227;83;28517;-52
2023/12/04 06:42:41;;;;;;;39.50;20.50;;;;;;;-2.89;93.04;100816.69;1713947;83;25881;-55
2023/12/04 06:45:10;;;;;;;36.68;19.40;;;;;;;-2.88;93.12;100820.94;1714173;83;25626;-54
2023/12/04 06:47:41;;;;;;;41.17;21.30;;;;;;;-2.88;93.16;100813.83;1714432;83;25664;-55
2023/12/04 06:50:11;;;;;;;37.35;19.87;;;;;;;-2.86;93.16;100823.70;1714099;83;25390;-55
2023/12/04 06:52:37;;;;;;;36.73;20.32;;;;;;;-2.85;92.99;100821.86;1714001;83;27914;-55
2023/12/04 06:55:07;;;;;;;39.45;21.87;;;;;;;-2.85;92.95;100818.69;1714018;83;25469;-55
2023/12/04 06:57:33;;;;;;;39.67;21.17;;;;;;;-2.84;92.97;100820.84;1714347;83;25630;-56
2023/12/04 07:00:00;;;;;;;35.90;19.92;;;;;;;-2.84;92.87;100819.52;1714038;83;25632;-56
2023/12/04 07:02:26;;;;;;;41.28;22.02;;;;;;;-2.84;92.77;100821.66;1714368;83;25392;-55
2023/12/04 07:04:53;;;;;;;37.48;21.25;;;;;;;-2.84;92.72;100812.91;1714309;83;28336;-55
2023/12/04 07:07:20;;;;;;;40.98;21.87;;;;;;;-2.83;92.86;100819.81;1714168;83;25588;-56
2023/12/04 07:09:47;;;;;;;40.48;22.42;;;;;;;-2.82;92.99;100815.63;1714192;83;25642;-55
2023/12/04 07:12:14;;;;;;;39.80;20.90;;;;;;;-2.77;92.86;100815.54;1714165;83;25619;-56
2023/12/04 07:14:41;;;;;;;41.53;20.90;;;;;;;-2.79;92.62;100821.04;1714201;83;25156;-56
2023/12/04 07:17:08;;;;;;;39.80;21.10;;;;;;;-2.79;92.72;100817.55;1714312;83;27648;-55
2023/12/04 07:19:35;;;;;;;43.52;22.50;;;;;;;-2.78;92.89;100823.17;1687870;83;25433;-53
2023/12/04 07:22:01;;;;;;;40.25;20.97;;;;;;;-2.75;92.71;100824.89;1714317;83;25588;-53
2023/12/04 07:24:28;;;;;;;39.48;21.05;;;;;;;-2.72;92.57;100818.38;1694325;83;26039;-53
2023/12/04 07:26:55;;;;;;;42.05;21.55;;;;;;;-2.69;92.75;100825.39;1715970;83;25457;-51
2023/12/04 07:29:22;;;;;;;40.95;21.40;;;;;;;-2.65;92.80;100821.81;1715940;83;28356;-54
2023/12/04 07:31:48;;;;;;;40.83;21.93;;;;;;;-2.61;92.67;100822.20;1715825;83;26169;-56
2023/12/04 07:34:16;;;;;;;40.85;21.17;;;;;;;-2.62;92.41;100829.35;1715954;83;25516;-56
2023/12/04 07:36:44;;;;;;;40.78;21.27;;;;;;;-2.63;92.14;100831.69;1715895;83;25619;-56
2023/12/04 07:39:15;;;;;;;40.52;21.23;;;;;;;-2.64;92.30;100836.17;1715958;83;25638;-52
2023/12/04 07:41:42;;;;;;;39.25;22.02;;;;;;;-2.65;92.15;100838.52;1664778;86;27380;-56
2023/12/04 07:44:09;;;;;;;38.78;21.12;;;;;;;-2.66;92.16;100838.72;1664675;85;25611;-53
2023/12/04 07:46:35;;;;;;;39.08;21.65;;;;;;;-2.63;92.47;100842.28;1664691;86;25595;-56
2023/12/04 07:49:03;;;;;;;42.78;22.25;;;;;;;-2.60;92.64;100844.52;1664652;86;26608;-54
2023/12/04 07:51:30;;;;;;;39.88;21.82;;;;;;;-2.56;92.47;100843.06;1664889;85;25260;-54
2023/12/04 07:53:57;;;;;;;48.63;23.15;;;;;;;-2.54;92.55;100838.89;1664712;86;27181;-55
2023/12/04 07:56:23;;;;;;;44.40;21.75;;;;;;;-2.50;92.54;100840.92;1664605;86;25768;-56
2023/12/04 07:58:51;;;;;;;44.95;22.70;;;;;;;-2.47;92.49;100839.19;1664726;86;25594;-53
2023/12/04 08:01:17;;;;;;;38.80;21.27;;;;;;;-2.44;92.19;100844.56;1664648;86;26031;-55
2023/12/04 08:03:44;;;;;;;41.00;21.87;;;;;;;-2.43;92.03;100846.20;1664692;86;25523;-56
2023/12/04 08:06:11;;;;;;;42.95;22.35;;;;;;;-2.43;92.03;100848.84;1664646;86;27392;-55
2023/12/04 08:08:38;;;;;;;42.65;22.22;;;;;;;-2.40;92.03;100849.77;1641990;86;25626;-56
2023/12/04 08:11:05;;;;;;;41.40;21.93;;;;;;;-2.39;91.83;100848.72;1664658;86;25573;-54
2023/12/04 08:13:32;;;;;;;42.43;21.57;;;;;;;-2.37;91.99;100853.30;1707844;83;26059;-55
2023/12/04 08:16:00;;;;;;;42.00;21.37;;;;;;;-2.34;91.94;100853.40;1715925;83;25650;-54
2023/12/04 08:18:27;;;;;;;39.98;20.75;;;;;;;-2.32;91.87;100849.50;1691364;83;27343;-55
2023/12/04 08:20:55;;;;;;;42.43;21.93;;;;;;;-2.30;91.79;100854.59;1715807;83;25572;-56
2023/12/04 08:23:23;;;;;;;38.45;20.90;;;;;;;-2.31;91.60;100859.09;1715846;83;25442;-57
2023/12/04 08:25:50;;;;;;;37.45;20.00;;;;;;;-2.32;91.35;100858.78;1715879;83;25639;-57
2023/12/04 08:28:17;;;;;;;42.05;20.80;;;;;;;-2.31;91.40;100862.27;1715952;83;25470;-55
2023/12/04 08:30:44;;;;;;;38.35;20.20;;;;;;;-2.31;91.56;100860.42;1715856;83;28368;-53
2023/12/04 08:33:11;;;;;;;42.73;20.17;;;;;;;-2.28;91.65;100863.17;1715802;83;25687;-54
2023/12/04 08:35:38;;;;;;;39.78;21.55;;;;;;;-2.28;91.43;100871.13;1715909;83;25408;-53
2023/12/04 08:38:05;;;;;;;38.75;21.30;;;;;;;-2.27;91.61;100872.21;1715883;83;25638;-53
2023/12/04 08:40:31;;;;;;;40.12;19.25;;;;;;;-2.26;91.54;100874.37;1691468;83;25495;-55
2023/12/04 08:42:58;;;;;;;40.35;19.75;;;;;;;-2.23;91.50;100878.42;1715946;83;27652;-52
2023/12/04 08:45:25;;;;;;;38.63;19.57;;;;;;;-2.22;91.23;100874.77;1715813;83;25448;-54
2023/12/04 08:47:52;;;;;;;40.70;20.48;;;;;;;-2.21;91.33;100879.02;1715897;83;25570;-56
2023/12/04 08:50:19;;;;;;;42.58;21.60;;;;;;;-2.19;91.32;100878.33;1715836;83;25591;-53
2023/12/04 08:52:45;;;;;;;44.85;20.62;;;;;;;-2.18;91.27;100887.40;1715929;83;25461;-54
2023/12/04 08:55:12;;;;;;;40.83;20.82;;;;;;;-2.14;91.42;100885.14;1715870;83;28335;-54
2023/12/04 08:57:39;;;;;;;45.43;23.00;;;;;;;-2.13;91.26;100894.20;1715809;83;25540;-55
2023/12/04 09:00:08;;;;;;;40.43;20.08;;;;;;;-2.12;90.98;100891.03;1715882;83;25603;-56
2023/12/04 09:02:35;;;;;;;37.53;18.82;;;;;;;-2.17;90.65;100889.00;1712525;83;25783;-56
2023/12/04 09:05:02;;;;;;;38.20;19.80;;;;;;;-2.18;90.52;100894.52;1715923;83;25396;-56
2023/12/04 09:07:29;;;;;;;39.42;19.55;;;;;;;-2.20;90.62;100896.05;1715862;83;27298;-54
2023/12/04 09:09:56;;;;;;;35.98;18.87;;;;;;;-2.18;90.93;100895.34;1691055;83;25756;-55
2023/12/04 09:12:22;;;;;;;41.75;19.42;;;;;;;-2.14;91.22;100890.44;1715889;83;25390;-53
2023/12/04 09:14:49;;;;;;;40.85;19.48;;;;;;;-2.10;91.20;100895.61;1715844;83;25963;-57
2023/12/04 09:17:16;;;;;;;39.78;21.27;;;;;;;-2.07;90.96;100895.20;1715895;83;25528;-53
2023/12/04 09:19:43;;;;;;;38.73;20.17;;;;;;;-2.07;90.77;100893.87;1715866;83;27324;-55
2023/12/04 09:22:09;;;;;;;44.80;23.45;;;;;;;-2.10;90.50;100895.61;1715774;83;25613;-54
2023/12/04 09:24:36;;;;;;;43.05;21.10;;;;;;;-2.12;89.97;100898.47;1714536;83;25639;-53
2023/12/04 09:27:03;;;;;;;39.65;20.60;;;;;;;-2.16;89.97;100903.90;1714099;83;26017;-56
2023/12/04 09:29:29;;;;;;;41.85;22.13;;;;;;;-2.21;89.70;100900.23;1714098;83;25432;-53
2023/12/04 09:31:56;;;;;;;45.70;22.85;;;;;;;-2.27;89.87;100897.91;1714162;83;27675;-52
2023/12/04 09:34:23;;;;;;;44.50;22.27;;;;;;;-2.22;90.38;100891.99;1714099;83;25426;-56
2023/12/04 09:36:49;;;;;;;42.05;21.20;;;;;;;-2.21;90.85;100887.81;1714114;83;25458;-53
2023/12/04 09:39:16;;;;;;;41.83;22.98;;;;;;;-2.09;91.36;100886.64;1714101;83;25690;-54
2023/12/04 09:41:44;;;;;;;43.40;21.62;;;;;;;-2.05;90.95;100883.86;1714109;83;25630;-55
2023/12/04 09:44:12;;;;;;;43.45;22.02;;;;;;;-2.06;90.34;100875.59;1714097;83;27255;-56
2023/12/04 09:46:39;;;;;;;42.80;22.67;;;;;;;-2.08;90.41;100875.00;1714121;83;25600;-53
2023/12/04 09:49:07;;;;;;;48.20;23.22;;;;;;;-2.07;90.62;100873.47;1714102;83;25507;-56
2023/12/04 09:51:37;;;;;;;44.93;22.48;;;;;;;-2.02;90.57;100879.99;1713849;83;26621;-57
2023/12/04 09:54:05;;;;;;;46.65;22.45;;;;;;;-2.00;90.88;100874.77;1714120;83;25449;-56
2023/12/04 09:56:35;;;;;;;45.78;23.55;;;;;;;-1.93;90.61;100873.41;1714069;83;27329;-57
2023/12/04 09:59:10;;;;;;;47.85;25.37;;;;;;;-1.93;90.62;100871.56;1713397;83;25780;-56
2023/12/04 10:01:41;;;;;;;48.80;24.92;;;;;;;-1.90;90.57;100875.64;1714102;83;25445;-54
2023/12/04 10:04:11;;;;;;;48.63;23.60;;;;;;;-1.85;90.78;100876.34;1714198;83;25632;-56
2023/12/04 10:06:39;;;;;;;41.88;22.10;;;;;;;-1.86;90.36;100868.88;1714329;83;25452;-55
2023/12/04 10:09:11;;;;;;;43.75;21.70;;;;;;;-1.85;89.75;100878.47;1714309;83;28142;-54
2023/12/04 10:11:41;;;;;;;43.60;23.15;;;;;;;-1.93;89.41;100869.44;1713172;83;25987;-58
2023/12/04 10:14:17;;;;;;;40.75;20.55;;;;;;;-1.96;89.37;100872.50;1714080;83;25436;-56
2023/12/04 10:16:45;;;;;;;38.60;20.52;;;;;;;-1.98;89.36;100879.86;1714164;83;26117;-57
2023/12/04 10:19:25;;;;;;;44.03;22.60;;;;;;;-2.00;89.44;100878.74;1714260;83;25438;-56
2023/12/04 10:21:51;;;;;;;;;;;;;;;-2.08;89.13;100861.25;1716590;82;27887;-57
2023/12/04 10:24:29;;;;;;;43.85;20.82;;;;;;;-2.08;89.09;100864.39;1719564;83;25706;-56
2023/12/04 10:26:58;;;;;;;39.53;20.53;;;;;;;-2.10;89.28;100871.75;1726145;83;25633;-57
2023/12/04 10:29:30;;;;;;;39.23;20.93;;;;;;;-2.13;89.22;100874.33;1726529;83;25619;-57
2023/12/04 10:32:00;;;;;;;41.35;21.93;;;;;;;-2.14;89.31;100874.02;1699262;83;25627;-57
2023/12/04 10:34:33;;;;;;;45.00;21.70;;;;;;;-2.18;88.94;100875.47;1726451;83;27624;-55
2023/12/04 10:37:03;;;;;;;41.88;21.23;;;;;;;-2.22;89.31;100874.77;1726121;83;25384;-55
2023/12/04 10:39:34;;;;;;;40.15;20.25;;;;;;;-2.16;89.85;100871.25;1699139;83;25638;-56
2023/12/04 10:42:06;;;;;;;42.98;21.27;;;;;;;-2.07;90.22;100875.31;1726211;83;25619;-56
2023/12/04 10:44:33;;;;;;;39.50;21.77;;;;;;;-2.05;89.77;100879.08;1726066;83;25570;-57
2023/12/04 10:47:03;;;;;;;37.10;20.00;;;;;;;-2.04;89.79;100876.22;1726210;83;27644;-57
2023/12/04 10:49:33;;;;;;;38.98;20.05;;;;;;;-2.00;89.80;100880.06;1725975;83;26559;-53
2023/12/04 10:52:05;;;;;;;36.58;19.30;;;;;;;-1.98;89.44;100869.25;1725899;83;25605;-56
2023/12/04 10:54:35;;;;;;;36.48;19.87;;;;;;;-1.95;89.45;100878.12;1726175;83;25643;-56
2023/12/04 10:57:05;;;;;;;;;;;;;;;-1.96;89.18;100871.17;1729048;82;25617;-55
2023/12/04 10:59:37;;;;;;;42.10;20.27;;;;;;;-1.95;89.21;100876.79;1726374;83;27673;-56
2023/12/04 11:02:08;;;;;;;40.95;21.55;;;;;;;-1.96;89.04;100865.88;1726300;83;25452;-55
2023/12/04 11:04:38;;;;;;;39.08;20.32;;;;;;;-1.98;89.21;100867.92;1726066;83;25424;-55
2023/12/04 11:07:08;;;;;;;43.55;21.40;;;;;;;-1.92;89.64;100869.74;1726218;83;26599;-56
2023/12/04 11:09:40;;;;;;;45.30;21.77;;;;;;;-1.85;89.49;100873.17;1726437;83;25519;-55
2023/12/04 11:33:39;;;;;;;44.30;21.95;;;;;;;-1.58;88.50;100867.72;1734815;77;27461;-55
2023/12/04 11:36:11;;;;;;;43.25;21.17;;;;;;;-1.51;88.78;100876.44;1724013;83;25497;-57